createdAt,value
2022-10-02T00:00:00.959Z,9.9
2022-10-02T00:02:00.893Z,9.9
2022-10-02T00:03:00.904Z,10
2022-10-02T00:04:00.955Z,9.9
2022-10-02T00:07:00.901Z,9.7
2022-10-02T00:08:00.900Z,9.8
2022-10-02T00:11:00.933Z,9.7
2022-10-02T00:13:00.910Z,9.6
2022-10-02T00:17:00.894Z,9.7
2022-10-02T00:19:00.888Z,9.6
2022-10-02T00:21:00.956Z,9.5
2022-10-02T00:23:00.996Z,9.4
2022-10-02T00:27:00.944Z,9.4
2022-10-02T00:29:00.992Z,9.5
2022-10-02T00:32:01.021Z,9.5
2022-10-02T00:33:00.984Z,9.4
2022-10-02T00:35:00.928Z,9.5
2022-10-02T00:37:00.920Z,9.4
2022-10-02T00:42:00.915Z,9.5
2022-10-02T00:45:00.932Z,9.5
2022-10-02T00:46:00.925Z,9.3
2022-10-02T00:47:00.942Z,9.4
2022-10-02T00:49:00.924Z,9.3
2022-10-02T00:50:00.892Z,9.4
2022-10-02T00:51:00.915Z,9.3
2022-10-02T00:54:00.924Z,9.5
2022-10-02T00:55:00.948Z,9.3
2022-10-02T00:58:00.922Z,9.4
2022-10-02T01:01:00.945Z,9.4
2022-10-02T01:03:00.944Z,9.2
2022-10-02T01:04:00.927Z,9.4
2022-10-02T01:06:00.962Z,9.3
2022-10-02T01:09:00.965Z,9.3
2022-10-02T01:12:00.886Z,9.3
2022-10-02T01:13:00.890Z,9.4
2022-10-02T01:15:00.891Z,9.3
2022-10-02T01:17:00.943Z,9.4
2022-10-02T01:20:00.924Z,9.3
2022-10-02T01:23:00.890Z,9.2
2022-10-02T01:24:00.952Z,9.3
2022-10-02T01:26:00.908Z,9.3
2022-10-02T01:28:00.943Z,9.4
2022-10-02T01:29:00.904Z,9.3
2022-10-02T01:30:00.963Z,9.4
2022-10-02T01:32:00.966Z,9.2
2022-10-02T01:33:00.921Z,9.3
2022-10-02T01:35:00.923Z,9.4
2022-10-02T01:37:00.911Z,9.1
2022-10-02T01:40:00.898Z,9.3
2022-10-02T01:42:00.887Z,9.4
2022-10-02T01:43:00.921Z,9.2
2022-10-02T01:47:00.889Z,9.1
2022-10-02T01:49:00.931Z,9.2
2022-10-02T01:53:00.921Z,9.2
2022-10-02T01:59:00.908Z,9.1
2022-10-02T02:03:00.935Z,9.1
2022-10-02T02:07:00.908Z,9.2
2022-10-02T02:11:00.899Z,9.1
2022-10-02T02:14:00.921Z,9.1
2022-10-02T02:15:00.936Z,9
2022-10-02T02:17:00.988Z,9
2022-10-02T02:18:00.900Z,9.1
2022-10-02T02:20:00.952Z,9
2022-10-02T02:21:00.930Z,9.1
2022-10-02T02:23:00.950Z,9.2
2022-10-02T02:25:00.891Z,9
2022-10-02T02:26:00.898Z,9.1
2022-10-02T02:28:00.962Z,9.1
2022-10-02T02:30:00.937Z,9.1
2022-10-02T02:31:00.927Z,9
2022-10-02T02:33:00.997Z,9.1
2022-10-02T02:36:00.933Z,9
2022-10-02T02:44:00.886Z,8.9
2022-10-02T02:45:00.950Z,9
2022-10-02T02:47:00.895Z,9
2022-10-02T02:49:00.898Z,9
2022-10-02T02:50:00.932Z,8.9
2022-10-02T02:53:00.890Z,9
2022-10-02T02:55:00.915Z,9
2022-10-02T02:57:00.890Z,9
2022-10-02T02:58:00.910Z,8.9
2022-10-02T02:59:00.928Z,9
2022-10-02T03:03:00.905Z,9
2022-10-02T03:04:00.952Z,8.9
2022-10-02T03:05:00.897Z,9
2022-10-02T03:07:00.890Z,8.9
2022-10-02T03:11:00.951Z,9
2022-10-02T03:13:00.933Z,9
2022-10-02T03:15:00.948Z,9
2022-10-02T03:17:00.893Z,8.9
2022-10-02T03:19:00.904Z,9
2022-10-02T03:20:00.915Z,8.9
2022-10-02T03:22:00.900Z,9.1
2022-10-02T03:23:00.910Z,9
2022-10-02T03:26:00.946Z,8.9
2022-10-02T03:27:00.895Z,9
2022-10-02T03:28:01.007Z,8.9
2022-10-02T03:30:00.916Z,9
2022-10-02T03:33:00.924Z,9.1
2022-10-02T03:34:00.935Z,8.9
2022-10-02T03:36:01.003Z,9.1
2022-10-02T03:38:00.916Z,8.9
2022-10-02T03:39:23.495Z,9
2022-10-02T03:41:00.907Z,8.9
2022-10-02T03:42:00.894Z,9
2022-10-02T03:46:01.005Z,8.9
2022-10-02T03:48:00.902Z,8.9
2022-10-02T03:50:00.979Z,9
2022-10-02T03:52:00.953Z,8.9
2022-10-02T03:54:00.903Z,9
2022-10-02T03:55:00.917Z,8.9
2022-10-02T03:58:00.913Z,8.8
2022-10-02T03:59:00.924Z,8.9
2022-10-02T04:02:00.984Z,8.8
2022-10-02T04:03:00.903Z,9
2022-10-02T04:04:01.030Z,8.9
2022-10-02T04:08:00.947Z,8.8
2022-10-02T04:13:00.934Z,8.8
2022-10-02T04:15:00.951Z,8.9
2022-10-02T04:20:00.905Z,8.9
2022-10-02T04:30:00.906Z,8.8
2022-10-02T04:31:00.995Z,8.9
2022-10-02T04:36:00.905Z,8.8
2022-10-02T04:38:00.934Z,8.9
2022-10-02T04:40:00.938Z,8.8
2022-10-02T04:42:00.964Z,8.9
2022-10-02T04:44:00.900Z,8.8
2022-10-02T04:45:00.965Z,9
2022-10-02T04:48:00.949Z,8.7
2022-10-02T04:52:00.947Z,9
2022-10-02T04:53:00.948Z,8.9
2022-10-02T04:55:00.907Z,9
2022-10-02T04:56:00.963Z,8.9
2022-10-02T05:00:00.893Z,8.8
2022-10-02T05:02:00.953Z,8.9
2022-10-02T05:04:03.869Z,8.9
2022-10-02T05:07:00.958Z,9
2022-10-02T05:11:00.935Z,8.9
2022-10-02T05:16:00.987Z,9.2
2022-10-02T05:17:00.898Z,9.3
2022-10-02T05:18:00.917Z,9.4
2022-10-02T05:19:00.906Z,9.3
2022-10-02T05:20:00.907Z,9.4
2022-10-02T05:22:00.968Z,9.5
2022-10-02T05:24:00.944Z,9.4
2022-10-02T05:25:00.972Z,9.5
2022-10-02T05:27:00.907Z,9.5
2022-10-02T05:28:01.029Z,9.6
2022-10-02T05:30:00.975Z,9.7
2022-10-02T05:32:01.016Z,9.4
2022-10-02T05:35:00.923Z,9.8
2022-10-02T05:36:00.913Z,9.9
2022-10-02T05:38:00.952Z,9.8
2022-10-02T05:41:00.945Z,9.9
2022-10-02T05:43:00.919Z,9.8
2022-10-02T05:46:00.929Z,9.9
2022-10-02T05:47:00.940Z,9.8
2022-10-02T05:49:00.951Z,10
2022-10-02T05:50:00.941Z,9.9
2022-10-02T05:52:00.904Z,9.9
2022-10-02T05:55:00.992Z,9.8
2022-10-02T05:59:00.941Z,10.2
2022-10-02T06:01:00.998Z,10.1
2022-10-02T06:04:00.905Z,10.3
2022-10-02T06:06:00.892Z,10.4
2022-10-02T06:07:00.909Z,10.5
2022-10-02T06:08:00.960Z,10.4
2022-10-02T06:10:00.983Z,10.5
2022-10-02T06:11:00.969Z,10.6
2022-10-02T06:13:00.918Z,10.8
2022-10-02T06:14:00.964Z,10.9
2022-10-02T06:17:00.965Z,11.1
2022-10-02T06:20:03.177Z,11.3
2022-10-02T06:22:00.921Z,11.7
2022-10-02T06:23:00.933Z,11.9
2022-10-02T06:25:00.939Z,12.3
2022-10-02T06:27:00.956Z,12.9
2022-10-02T06:29:00.957Z,13.3
2022-10-02T06:30:01.073Z,13.5
2022-10-02T06:32:01.074Z,13.9
2022-10-02T06:34:00.967Z,14.1
2022-10-02T06:36:00.956Z,14.2
2022-10-02T06:39:00.948Z,14.1
2022-10-02T06:41:00.906Z,13.8
2022-10-02T06:42:00.907Z,13.6
2022-10-02T06:43:00.894Z,13.5
2022-10-02T06:44:00.897Z,13.3
2022-10-02T06:45:00.945Z,13.2
2022-10-02T06:47:00.913Z,12.9
2022-10-02T06:49:00.917Z,12.8
2022-10-02T06:51:00.897Z,12.6
2022-10-02T06:53:00.896Z,12.5
2022-10-02T06:54:00.932Z,12.6
2022-10-02T06:57:00.934Z,12.6
2022-10-02T06:58:00.949Z,12.7
2022-10-02T07:00:00.945Z,13.5
2022-10-02T07:02:00.963Z,14
2022-10-02T07:03:00.974Z,14.4
2022-10-02T07:05:00.935Z,14.7
2022-10-02T07:07:00.902Z,15.1
2022-10-02T07:08:00.922Z,15.2
2022-10-02T07:09:00.936Z,15.4
2022-10-02T07:11:00.893Z,15.5
2022-10-02T07:12:00.899Z,15.6
2022-10-02T07:13:00.941Z,15.5
2022-10-02T07:14:00.952Z,15.6
2022-10-02T07:16:00.992Z,15.4
2022-10-02T07:20:00.922Z,15.5
2022-10-02T07:21:00.942Z,15.3
2022-10-02T07:24:02.529Z,15.2
2022-10-02T07:26:00.952Z,15.1
2022-10-02T07:28:01.022Z,14.8
2022-10-02T07:31:00.914Z,14.4
2022-10-02T07:32:00.947Z,14.2
2022-10-02T07:34:00.932Z,14
2022-10-02T07:37:00.958Z,13.7
2022-10-02T07:39:00.933Z,13.6
2022-10-02T07:40:00.912Z,13.5
2022-10-02T07:41:00.911Z,13.3
2022-10-02T07:44:00.909Z,13.2
2022-10-02T07:47:00.937Z,13.1
2022-10-02T07:48:00.917Z,13.2
2022-10-02T07:49:00.965Z,13
2022-10-02T07:53:00.957Z,13.1
2022-10-02T07:56:00.950Z,12.9
2022-10-02T07:57:00.894Z,12.8
2022-10-02T07:59:00.934Z,13
2022-10-02T08:00:00.973Z,13.1
2022-10-02T08:03:00.979Z,13.4
2022-10-02T08:04:00.967Z,13.5
2022-10-02T08:07:00.903Z,13.7
2022-10-02T08:08:00.927Z,13.8
2022-10-02T08:11:00.952Z,13.9
2022-10-02T08:13:00.931Z,13.8
2022-10-02T08:15:00.995Z,13.9
2022-10-02T08:17:00.927Z,13.9
2022-10-02T08:18:10.997Z,13.8
2022-10-02T08:20:00.989Z,13.9
2022-10-02T08:25:00.902Z,14.1
2022-10-02T08:28:00.957Z,14.2
2022-10-02T08:29:01.000Z,14.1
2022-10-02T08:31:00.953Z,14.2
2022-10-02T08:32:00.978Z,14.1
2022-10-02T08:34:01.013Z,14.2
2022-10-02T08:36:00.933Z,14.2
2022-10-02T08:38:00.942Z,14.4
2022-10-02T08:40:00.967Z,14.5
2022-10-02T08:42:00.954Z,14.5
2022-10-02T08:43:00.963Z,14.6
2022-10-02T08:46:00.963Z,14.8
2022-10-02T08:47:00.893Z,14.7
2022-10-02T08:49:00.898Z,14.9
2022-10-02T08:52:00.890Z,15
2022-10-02T08:53:00.956Z,14.9
2022-10-02T08:56:00.907Z,15
2022-10-02T08:57:00.911Z,14.9
2022-10-02T08:58:00.904Z,15.2
2022-10-02T08:59:00.918Z,15.1
2022-10-02T09:00:00.964Z,15
2022-10-02T09:03:00.944Z,15
2022-10-02T09:06:00.896Z,14.9
2022-10-02T09:08:00.895Z,14.8
2022-10-02T09:09:00.949Z,14.9
2022-10-02T09:10:00.928Z,15
2022-10-02T09:17:01.010Z,14.9
2022-10-02T09:19:00.927Z,15
2022-10-02T09:21:00.916Z,14.8
2022-10-02T09:23:00.936Z,14.7
2022-10-02T09:26:00.933Z,14.8
2022-10-02T09:28:00.972Z,14.9
2022-10-02T09:33:01.066Z,15
2022-10-02T09:40:00.894Z,15.1
2022-10-02T09:42:00.904Z,15
2022-10-02T09:43:00.894Z,15.2
2022-10-02T09:44:00.899Z,15
2022-10-02T09:45:01.665Z,15.1
2022-10-02T09:48:00.913Z,15.3
2022-10-02T09:49:00.945Z,15.5
2022-10-02T09:50:00.971Z,15.3
2022-10-02T09:53:00.898Z,15.3
2022-10-02T09:55:00.916Z,15.4
2022-10-02T09:57:00.919Z,15.4
2022-10-02T10:00:01.030Z,15.6
2022-10-02T10:02:00.990Z,15.7
2022-10-02T10:05:05.851Z,15.9
2022-10-02T10:06:00.946Z,16.1
2022-10-02T10:08:00.941Z,16.3
2022-10-02T10:10:00.930Z,16.4
2022-10-02T10:12:01.037Z,16.6
2022-10-02T10:14:00.942Z,16.8
2022-10-02T10:16:00.941Z,16.6
2022-10-02T10:17:00.963Z,16.5
2022-10-02T10:20:00.896Z,16.5
2022-10-02T10:22:00.932Z,16.3
2022-10-02T10:24:00.966Z,16.1
2022-10-02T10:25:00.933Z,16.2
2022-10-02T10:27:00.954Z,16.1
2022-10-02T10:29:00.942Z,16
2022-10-02T10:30:00.965Z,15.8
2022-10-02T10:31:00.964Z,15.7
2022-10-02T10:33:00.982Z,15.7
2022-10-02T10:35:00.928Z,15.6
2022-10-02T10:36:00.924Z,15.5
2022-10-02T10:38:00.906Z,15.4
2022-10-02T10:39:00.926Z,15.5
2022-10-02T10:40:00.971Z,15.3
2022-10-02T10:41:01.009Z,15.4
2022-10-02T10:43:07.717Z,15.3
2022-10-02T10:46:01.043Z,15.4
2022-10-02T10:47:00.921Z,15.3
2022-10-02T10:54:01.978Z,15.2
2022-10-02T10:57:00.907Z,15.2
2022-10-02T10:58:00.919Z,15.1
2022-10-02T10:59:00.928Z,15.2
2022-10-02T11:04:00.919Z,15.1
2022-10-02T11:05:00.982Z,15.2
2022-10-02T11:09:00.968Z,15.2
2022-10-02T11:10:00.924Z,15.1
2022-10-02T11:12:01.007Z,15.3
2022-10-02T11:16:00.955Z,15.4
2022-10-02T11:17:00.954Z,15.3
2022-10-02T11:20:00.912Z,15.4
2022-10-02T11:21:01.003Z,15.3
2022-10-02T11:26:00.958Z,15.2
2022-10-02T11:28:00.907Z,15.3
2022-10-02T11:30:00.971Z,15.4
2022-10-02T11:31:01.036Z,15.5
2022-10-02T11:33:00.970Z,15.6
2022-10-02T11:34:01.018Z,15.5
2022-10-02T11:36:00.903Z,15.7
2022-10-02T11:38:03.907Z,15.6
2022-10-02T11:39:00.974Z,15.5
2022-10-02T11:40:00.995Z,15.6
2022-10-02T11:42:00.911Z,15.6
2022-10-02T11:43:00.997Z,15.5
2022-10-02T11:44:01.002Z,15.6
2022-10-02T11:45:01.038Z,15.5
2022-10-02T11:47:01.007Z,15.5
2022-10-02T11:51:01.067Z,15.3
2022-10-02T11:54:00.996Z,15.2
2022-10-02T11:56:01.113Z,15.1
2022-10-02T12:03:01.411Z,15.3
2022-10-02T12:06:01.372Z,15.4
2022-10-02T12:07:01.655Z,15.3
2022-10-02T12:08:02.232Z,15.4
2022-10-02T12:10:02.573Z,15.4
2022-10-02T12:12:01.773Z,15.5
2022-10-02T12:15:01.099Z,15.7
2022-10-02T12:16:01.157Z,15.8
2022-10-02T12:19:01.017Z,15.8
2022-10-02T12:22:00.974Z,15.7
2022-10-02T12:25:01.132Z,15.8
2022-10-02T12:26:01.204Z,15.7
2022-10-02T12:27:01.135Z,15.6
2022-10-02T12:36:00.968Z,15.5
2022-10-02T12:38:01.010Z,15.6
2022-10-02T12:39:01.043Z,15.7
2022-10-02T12:47:00.982Z,15.6
2022-10-02T12:49:01.096Z,15.5
2022-10-02T12:52:01.122Z,15.5
2022-10-02T12:55:01.559Z,15.4
2022-10-02T12:57:01.136Z,15.3
2022-10-02T12:58:01.376Z,15.4
2022-10-02T13:00:01.362Z,15.1
2022-10-02T13:03:01.716Z,15.2
2022-10-02T13:05:01.145Z,15.1
2022-10-02T13:13:01.120Z,15.3
2022-10-02T13:15:01.099Z,15.5
2022-10-02T13:17:00.984Z,15.3
2022-10-02T13:19:00.970Z,15.4
2022-10-02T13:20:01.050Z,15.5
2022-10-02T13:22:00.957Z,15.6
2022-10-02T13:23:00.932Z,15.5
2022-10-02T13:24:00.996Z,15.6
2022-10-02T13:25:00.991Z,15.5
2022-10-02T13:26:01.088Z,15.6
2022-10-02T13:29:00.967Z,15.5
2022-10-02T13:32:00.989Z,15.6
2022-10-02T13:34:00.905Z,15.6
2022-10-02T13:36:00.913Z,15.5
2022-10-02T13:38:00.940Z,15.6
2022-10-02T13:40:01.017Z,15.7
2022-10-02T13:48:00.925Z,15.6
2022-10-02T13:50:00.892Z,15.6
2022-10-02T13:53:00.894Z,15.5
2022-10-02T13:56:00.962Z,15.6
2022-10-02T13:58:00.922Z,15.4
2022-10-02T13:59:00.952Z,15.5
2022-10-02T14:01:00.958Z,15.4
2022-10-02T14:02:00.936Z,15.5
2022-10-02T14:06:00.932Z,15.2
2022-10-02T14:07:00.951Z,15.3
2022-10-02T14:08:00.964Z,15.4
2022-10-02T14:10:00.901Z,15.2
2022-10-02T14:11:00.948Z,15.4
2022-10-02T14:16:00.941Z,15.2
2022-10-02T14:18:00.916Z,15.4
2022-10-02T14:19:00.962Z,15.3
2022-10-02T14:21:00.961Z,15.4
2022-10-02T14:23:00.922Z,15.3
2022-10-02T14:25:00.920Z,15.3
2022-10-02T14:26:00.985Z,15.2
2022-10-02T14:28:00.967Z,15.4
2022-10-02T14:29:03.911Z,15.3
2022-10-02T14:30:00.976Z,15.4
2022-10-02T14:31:00.979Z,15.3
2022-10-02T14:33:00.968Z,15.4
2022-10-02T14:38:00.896Z,15.2
2022-10-02T14:39:00.931Z,15.3
2022-10-02T14:42:00.914Z,15.2
2022-10-02T14:43:00.919Z,15.1
2022-10-02T14:44:00.961Z,15.2
2022-10-02T14:47:00.953Z,15.1
2022-10-02T14:50:00.943Z,15
2022-10-02T14:54:00.963Z,14.8
2022-10-02T14:56:00.949Z,14.9
2022-10-02T14:58:00.897Z,15
2022-10-02T14:59:00.946Z,14.7
2022-10-02T15:01:00.981Z,14.8
2022-10-02T15:05:04.149Z,14.6
2022-10-02T15:06:00.933Z,14.7
2022-10-02T15:07:00.990Z,14.6
2022-10-02T15:09:01.003Z,14.6
2022-10-02T15:11:00.951Z,14.5
2022-10-02T15:13:02.951Z,14.3
2022-10-02T15:14:00.897Z,14.4
2022-10-02T15:16:00.959Z,14.3
2022-10-02T15:17:00.946Z,14.2
2022-10-02T15:18:00.953Z,14.4
2022-10-02T15:20:01.011Z,14.3
2022-10-02T15:22:00.975Z,14.1
2022-10-02T15:25:00.938Z,13.9
2022-10-02T15:27:00.991Z,13.9
2022-10-02T15:29:00.942Z,13.9
2022-10-02T15:30:01.045Z,13.8
2022-10-02T15:32:00.973Z,13.9
2022-10-02T15:33:00.918Z,13.6
2022-10-02T15:37:00.911Z,13.4
2022-10-02T15:39:00.897Z,13.5
2022-10-02T15:40:00.967Z,13.4
2022-10-02T15:43:00.943Z,13.3
2022-10-02T15:45:00.899Z,13.1
2022-10-02T15:46:00.916Z,13.2
2022-10-02T15:49:00.906Z,13.1
2022-10-02T15:50:00.979Z,13
2022-10-02T15:54:00.895Z,12.9
2022-10-02T15:56:00.891Z,13
2022-10-02T15:57:00.928Z,12.9
2022-10-02T15:58:00.929Z,12.8
2022-10-02T16:00:01.064Z,12.9
2022-10-02T16:04:00.940Z,12.6
2022-10-02T16:05:00.992Z,12.8
2022-10-02T16:07:00.906Z,12.6
2022-10-02T16:08:00.927Z,12.7
2022-10-02T16:10:00.943Z,12.5
2022-10-02T16:12:00.951Z,12.5
2022-10-02T16:16:00.941Z,12.4
2022-10-02T16:20:01.013Z,12.3
2022-10-02T16:22:00.892Z,12.2
2022-10-02T16:25:00.901Z,12.1
2022-10-02T16:28:00.928Z,12.2
2022-10-02T16:29:00.902Z,12.1
2022-10-02T16:30:00.992Z,12.2
2022-10-02T16:31:00.964Z,12
2022-10-02T16:32:00.931Z,12.1
2022-10-02T16:33:00.973Z,12
2022-10-02T16:35:00.937Z,12
2022-10-02T16:42:00.953Z,11.7
2022-10-02T16:44:00.929Z,11.7
2022-10-02T16:49:00.954Z,11.8
2022-10-02T16:52:00.900Z,11.7
2022-10-02T16:54:00.919Z,11.7
2022-10-02T16:59:01.729Z,11.8
2022-10-02T17:01:00.929Z,11.7
2022-10-02T17:03:00.952Z,11.8
2022-10-02T17:04:00.988Z,11.7
2022-10-02T17:07:00.937Z,11.8
2022-10-02T17:08:01.180Z,12
2022-10-02T17:09:00.958Z,11.8
2022-10-02T17:11:00.929Z,11.9
2022-10-02T17:12:00.939Z,11.8
2022-10-02T17:13:00.949Z,12
2022-10-02T17:16:01.009Z,12
2022-10-02T17:20:00.950Z,11.9
2022-10-02T17:21:00.989Z,12
2022-10-02T17:23:00.958Z,11.8
2022-10-02T17:24:00.946Z,11.9
2022-10-02T17:26:00.942Z,11.9
2022-10-02T17:27:00.937Z,12
2022-10-02T17:29:00.909Z,11.9
2022-10-02T17:30:00.979Z,12
2022-10-02T17:33:04.423Z,11.9
2022-10-02T17:35:00.934Z,11.9
2022-10-02T17:37:00.920Z,12.2
2022-10-02T17:38:00.954Z,11.9
2022-10-02T17:41:00.962Z,11.9
2022-10-02T17:44:00.909Z,12.1
2022-10-02T17:45:00.929Z,11.9
2022-10-02T17:49:00.915Z,11.9
2022-10-02T17:50:00.967Z,12
2022-10-02T17:51:00.946Z,11.8
2022-10-02T17:53:00.943Z,11.9
2022-10-02T17:55:00.957Z,11.7
2022-10-02T17:57:00.929Z,11.5
2022-10-02T17:59:00.946Z,11.6
2022-10-02T18:01:00.945Z,11.6
2022-10-02T18:02:00.971Z,11.7
2022-10-02T18:04:00.923Z,11.6
2022-10-02T18:06:00.896Z,11.5
2022-10-02T18:07:00.957Z,11.4
2022-10-02T18:09:00.921Z,11.3
2022-10-02T18:14:00.937Z,11.2
2022-10-02T18:15:00.899Z,11.1
2022-10-02T18:16:00.948Z,11.2
2022-10-02T18:18:00.938Z,11.1
2022-10-02T18:21:00.917Z,11
2022-10-02T18:22:00.908Z,11.1
2022-10-02T18:24:00.907Z,11
2022-10-02T18:25:00.949Z,10.9
2022-10-02T18:27:00.908Z,11
2022-10-02T18:28:01.008Z,10.9
2022-10-02T18:33:01.129Z,10.8
2022-10-02T18:35:00.941Z,10.9
2022-10-02T18:36:01.084Z,10.8
2022-10-02T18:38:00.910Z,10.7
2022-10-02T18:39:00.897Z,10.8
2022-10-02T18:40:06.095Z,10.7
2022-10-02T18:42:00.975Z,10.8
2022-10-02T18:46:00.943Z,10.7
2022-10-02T18:47:00.938Z,10.8
2022-10-02T18:50:00.908Z,10.8
2022-10-02T18:54:00.919Z,10.7
2022-10-02T18:59:00.924Z,10.8
2022-10-02T19:00:00.955Z,10.9
2022-10-02T19:02:00.942Z,10.9
2022-10-02T19:03:01.004Z,10.7
2022-10-02T19:05:01.015Z,10.9
2022-10-02T19:07:00.906Z,10.9
2022-10-02T19:11:00.939Z,11
2022-10-02T19:13:00.903Z,11
2022-10-02T19:14:00.989Z,10.9
2022-10-02T19:15:00.975Z,11
2022-10-02T19:17:00.963Z,10.9
2022-10-02T19:21:00.931Z,10.9
2022-10-02T19:22:00.923Z,11
2022-10-02T19:24:00.930Z,10.9
2022-10-02T19:25:00.982Z,11
2022-10-02T19:27:00.961Z,11.1
2022-10-02T19:28:00.997Z,11
2022-10-02T19:31:00.969Z,11
2022-10-02T19:33:00.976Z,11
2022-10-02T19:34:00.969Z,11.1
2022-10-02T19:38:00.974Z,11
2022-10-02T19:41:00.948Z,10.9
2022-10-02T19:42:00.967Z,11
2022-10-02T19:43:00.966Z,11.2
2022-10-02T19:45:00.961Z,11.1
2022-10-02T19:47:00.937Z,11.1
2022-10-02T19:51:00.899Z,11
2022-10-02T19:56:00.939Z,11.1
2022-10-02T19:58:00.960Z,11
2022-10-02T20:02:00.977Z,10.9
2022-10-02T20:03:00.948Z,11
2022-10-02T20:07:00.974Z,11.1
2022-10-02T20:10:00.930Z,11.1
2022-10-02T20:11:00.938Z,11
2022-10-02T20:14:01.180Z,11.1
2022-10-02T20:15:00.973Z,11
2022-10-02T20:17:00.918Z,11
2022-10-02T20:25:00.956Z,11.1
2022-10-02T20:31:00.950Z,10.9
2022-10-02T20:33:00.959Z,11
2022-10-02T20:36:00.914Z,10.9
2022-10-02T20:37:00.929Z,11
2022-10-02T20:41:00.903Z,11
2022-10-02T20:43:00.957Z,10.9
2022-10-02T20:46:00.900Z,10.9
2022-10-02T20:47:00.923Z,10.8
2022-10-02T20:49:08.277Z,10.9
2022-10-02T20:51:00.931Z,10.8
2022-10-02T20:53:00.891Z,10.8
2022-10-02T20:54:00.888Z,10.9
2022-10-02T20:55:00.949Z,10.8
2022-10-02T20:57:00.992Z,10.8
2022-10-02T20:59:00.912Z,10.9
2022-10-02T21:00:00.896Z,10.8
2022-10-02T21:03:00.978Z,10.9
2022-10-02T21:05:00.921Z,10.7
2022-10-02T21:06:00.918Z,10.8
2022-10-02T21:11:00.920Z,10.7
2022-10-02T21:12:00.937Z,10.6
2022-10-02T21:13:00.910Z,10.7
2022-10-02T21:15:00.947Z,10.8
2022-10-02T21:18:00.917Z,10.7
2022-10-02T21:20:00.947Z,10.6
2022-10-02T21:23:00.915Z,10.5
2022-10-02T21:24:00.894Z,10.6
2022-10-02T21:25:00.929Z,10.5
2022-10-02T21:27:00.953Z,10.3
2022-10-02T21:29:00.921Z,10.4
2022-10-02T21:31:00.948Z,10.3
2022-10-02T21:33:00.900Z,10.2
2022-10-02T21:34:00.920Z,10.3
2022-10-02T21:36:00.923Z,10.3
2022-10-02T21:38:00.983Z,10.2
2022-10-02T21:40:00.897Z,10.1
2022-10-02T21:41:00.922Z,10.3
2022-10-02T21:42:00.897Z,10.2
2022-10-02T21:43:00.940Z,10.1
2022-10-02T21:46:00.977Z,10.3
2022-10-02T21:48:00.909Z,10.4
2022-10-02T21:49:00.910Z,10.1
2022-10-02T21:51:00.910Z,10.2
2022-10-02T21:56:00.895Z,10.3
2022-10-02T21:57:00.894Z,10.1
2022-10-02T21:58:00.896Z,10.3
2022-10-02T22:00:01.052Z,10.2
2022-10-02T22:03:00.914Z,10.2
2022-10-02T22:04:00.896Z,10.3
2022-10-02T22:05:00.899Z,10.2
2022-10-02T22:06:00.957Z,10.3
2022-10-02T22:09:00.905Z,10.4
2022-10-02T22:10:00.903Z,10.3
2022-10-02T22:14:00.888Z,10.4
2022-10-02T22:15:00.939Z,10.3
2022-10-02T22:22:00.939Z,10.5
2022-10-02T22:24:00.902Z,10.5
2022-10-02T22:31:00.997Z,10.4
2022-10-02T22:32:00.969Z,10.6
2022-10-02T22:34:00.939Z,10.5
2022-10-02T22:35:00.948Z,10.4
2022-10-02T22:37:00.891Z,10.5
2022-10-02T22:38:00.949Z,10.6
2022-10-02T22:40:00.901Z,10.3
2022-10-02T22:41:00.923Z,10.6
2022-10-02T22:43:00.903Z,10.5
2022-10-02T22:45:00.943Z,10.5
2022-10-02T22:48:00.940Z,10.4
2022-10-02T22:50:00.925Z,10.5
2022-10-02T22:51:00.898Z,10.3
2022-10-02T22:52:00.900Z,10.5
2022-10-02T22:53:00.937Z,10.4
2022-10-02T22:56:00.913Z,10.5
2022-10-02T22:59:00.900Z,10.4
2022-10-02T23:02:00.916Z,10.5
2022-10-02T23:03:00.996Z,10.4
2022-10-02T23:04:00.954Z,10.3
2022-10-02T23:08:00.902Z,10.5
2022-10-02T23:09:00.898Z,10.3
2022-10-02T23:10:00.910Z,10.4
2022-10-02T23:12:00.933Z,10.3
2022-10-02T23:14:00.945Z,10.3
2022-10-02T23:16:00.998Z,10.4
2022-10-02T23:19:00.903Z,10.3
2022-10-02T23:22:00.954Z,10.4
2022-10-02T23:24:00.978Z,10.3
2022-10-02T23:26:00.899Z,10.2
2022-10-02T23:28:01.018Z,10.3
2022-10-02T23:32:00.957Z,10.3
2022-10-02T23:36:00.899Z,10.4
2022-10-02T23:38:00.898Z,10.3
2022-10-02T23:42:00.911Z,10.3
2022-10-02T23:46:00.948Z,10.5
2022-10-02T23:47:00.906Z,10.3
2022-10-02T23:49:00.910Z,10.4
2022-10-02T23:55:00.939Z,10.4
